createdAt,value
2018-09-18T00:01:28.048Z,37.63
2018-09-18T00:03:58.849Z,35.20
2018-09-18T00:06:29.618Z,38.03
2018-09-18T00:09:00.442Z,36.10
2018-09-18T00:11:31.207Z,30.83
2018-09-18T00:14:02.049Z,34.57
2018-09-18T00:16:32.819Z,32.37
2018-09-18T00:19:03.982Z,30.10
2018-09-18T00:21:35.334Z,30.07
2018-09-18T00:24:06.137Z,26.90
2018-09-18T00:26:40.873Z,24.40
2018-09-18T00:29:11.671Z,24.93
2018-09-18T00:31:42.476Z,23.33
2018-09-18T00:34:13.873Z,32.67
2018-09-18T00:36:44.645Z,31.63
2018-09-18T00:39:15.893Z,32.80
2018-09-18T00:41:46.797Z,38.97
2018-09-18T00:44:17.591Z,30.77
2018-09-18T00:46:49.332Z,33.13
2018-09-18T00:49:20.157Z,28.57
2018-09-18T00:51:50.997Z,27.20
2018-09-18T00:54:22.061Z,31.77
2018-09-18T00:56:52.822Z,27.33
2018-09-18T00:59:23.605Z,26.97
2018-09-18T01:01:54.353Z,27.13
2018-09-18T01:04:27.442Z,25.93
2018-09-18T01:06:58.362Z,26.87
2018-09-18T01:09:29.389Z,25.07
2018-09-18T01:12:00.607Z,26.37
2018-09-18T01:14:31.481Z,24.23
2018-09-18T01:17:02.789Z,32.93
2018-09-18T01:19:33.650Z,33.43
2018-09-18T01:22:04.582Z,57.80
2018-09-18T01:25:59.647Z,52.03
2018-09-18T01:28:31.021Z,52.37
2018-09-18T01:31:03.049Z,53.17
2018-09-18T01:33:35.088Z,48.33
2018-09-18T01:36:06.785Z,42.67
2018-09-18T01:38:37.913Z,46.47
2018-09-18T01:41:08.693Z,43.93
2018-09-18T01:43:39.699Z,38.03
2018-09-18T01:46:11.536Z,41.87
2018-09-18T01:48:46.210Z,40.07
2018-09-18T01:51:17.063Z,41.73
2018-09-18T01:53:48.509Z,40.23
2018-09-18T01:56:19.459Z,32.07
2018-09-18T01:58:50.210Z,33.33
2018-09-18T02:01:20.993Z,30.20
2018-09-18T02:03:52.381Z,27.83
2018-09-18T02:06:23.334Z,27.53
2018-09-18T02:08:54.365Z,25.40
2018-09-18T02:11:25.147Z,33.73
2018-09-18T02:13:55.898Z,29.97
2018-09-18T02:16:27.729Z,31.47
2018-09-18T02:18:59.265Z,33.80
2018-09-18T02:21:30.099Z,31.90
2018-09-18T02:24:01.461Z,32.43
2018-09-18T02:26:32.390Z,33.63
2018-09-18T02:29:03.140Z,32.03
2018-09-18T02:31:36.692Z,41.57
2018-09-18T02:34:07.960Z,39.00
2018-09-18T02:36:41.422Z,40.80
2018-09-18T02:39:13.179Z,36.63
2018-09-18T02:41:44.428Z,34.87
2018-09-18T02:44:17.815Z,41.07
2018-09-18T02:46:49.672Z,44.83
2018-09-18T02:49:20.653Z,41.07
2018-09-18T02:51:51.809Z,45.23
2018-09-18T02:54:22.562Z,40.63
2018-09-18T02:56:54.417Z,35.00
2018-09-18T02:59:25.181Z,28.40
2018-09-18T03:01:56.009Z,27.40
2018-09-18T03:04:27.611Z,26.17
2018-09-18T03:06:58.628Z,25.37
2018-09-18T03:09:29.379Z,26.03
2018-09-18T03:12:01.290Z,26.50
2018-09-18T03:14:32.067Z,23.53
2018-09-18T03:17:02.868Z,24.00
2018-09-18T03:19:34.362Z,25.50
2018-09-18T03:22:05.862Z,25.67
2018-09-18T03:24:36.609Z,28.27
2018-09-18T03:27:07.665Z,31.93
2018-09-18T03:29:38.494Z,36.77
2018-09-18T03:32:09.304Z,34.43
2018-09-18T03:34:40.088Z,36.27
2018-09-18T03:37:10.959Z,38.67
2018-09-18T03:39:42.433Z,34.40
2018-09-18T03:42:13.216Z,33.17
2018-09-18T03:44:44.155Z,36.47
2018-09-18T03:47:14.943Z,42.50
2018-09-18T03:49:45.701Z,39.60
2018-09-18T03:52:16.497Z,49.23
2018-09-18T03:54:47.528Z,65.57
2018-09-18T03:57:18.358Z,84.60
2018-09-18T03:59:49.140Z,63.40
2018-09-18T04:02:19.995Z,59.90
2018-09-18T04:04:51.161Z,52.80
2018-09-18T04:07:22.020Z,39.90
2018-09-18T04:09:52.893Z,43.40
2018-09-18T04:12:24.267Z,47.03
2018-09-18T04:14:55.025Z,42.93
2018-09-18T04:17:26.684Z,54.73
2018-09-18T04:19:57.722Z,195.10
2018-09-18T04:22:28.645Z,48.03
2018-09-18T04:24:59.400Z,43.23
2018-09-18T04:27:30.237Z,44.63
2018-09-18T04:30:05.734Z,44.13
2018-09-18T04:32:37.013Z,37.73
2018-09-18T04:35:08.230Z,37.27
2018-09-18T04:37:39.017Z,33.90
2018-09-18T04:40:09.821Z,31.77
2018-09-18T04:42:41.682Z,37.17
2018-09-18T04:45:12.516Z,55.20
2018-09-18T04:47:43.705Z,41.30
2018-09-18T04:50:14.451Z,54.53
2018-09-18T04:52:45.326Z,45.97
2018-09-18T04:55:16.738Z,52.47
2018-09-18T04:57:47.598Z,42.47
2018-09-18T05:00:18.352Z,51.17
2018-09-18T05:02:49.131Z,40.97
2018-09-18T05:05:19.883Z,41.43
2018-09-18T05:07:50.683Z,40.60
2018-09-18T05:10:25.378Z,41.10
2018-09-18T05:12:56.241Z,41.20
2018-09-18T05:15:27.707Z,40.13
2018-09-18T05:17:59.792Z,58.93
2018-09-18T05:20:33.261Z,45.63
2018-09-18T05:23:04.050Z,47.70
2018-09-18T05:25:34.835Z,45.33
2018-09-18T05:28:06.853Z,42.33
2018-09-18T05:32:01.620Z,35.60
2018-09-18T05:34:32.435Z,41.93
2018-09-18T05:37:04.997Z,35.73
2018-09-18T05:39:35.810Z,94.97
2018-09-18T05:42:06.872Z,57.93
2018-09-18T05:44:38.397Z,74.27
2018-09-18T05:47:10.414Z,77.37
2018-09-18T05:49:41.306Z,118.43
2018-09-18T05:52:12.644Z,87.50
2018-09-18T05:54:44.045Z,113.40
2018-09-18T05:57:15.223Z,58.70
2018-09-18T05:59:46.073Z,36.10
2018-09-18T06:02:17.510Z,38.70
2018-09-18T06:04:48.482Z,38.93
2018-09-18T06:07:20.094Z,32.73
2018-09-18T06:09:52.472Z,35.07
2018-09-18T06:12:23.311Z,30.93
2018-09-18T06:14:54.312Z,28.90
2018-09-18T06:17:25.853Z,31.10
2018-09-18T06:19:56.986Z,25.40
2018-09-18T06:22:27.746Z,28.90
2018-09-18T06:24:58.787Z,30.03
2018-09-18T06:27:29.567Z,31.53
2018-09-18T06:30:00.812Z,25.47
2018-09-18T06:32:31.645Z,24.20
2018-09-18T06:35:02.584Z,26.73
2018-09-18T06:37:33.901Z,23.37
2018-09-18T06:40:04.808Z,22.77
2018-09-18T06:42:35.568Z,23.47
2018-09-18T06:45:07.368Z,22.97
2018-09-18T06:47:38.150Z,24.43
2018-09-18T06:50:09.069Z,29.20
2018-09-18T06:52:39.897Z,33.43
2018-09-18T06:55:10.710Z,32.00
2018-09-18T06:57:41.650Z,31.27
2018-09-18T07:00:12.628Z,26.70
2018-09-18T07:02:43.387Z,29.00
2018-09-18T07:07:50.280Z,23.00
2018-09-18T07:10:21.141Z,29.83
2018-09-18T07:12:52.011Z,27.57
2018-09-18T07:15:23.555Z,27.57
2018-09-18T07:17:54.530Z,28.37
2018-09-18T07:20:25.642Z,22.77
2018-09-18T07:22:56.454Z,24.47
2018-09-18T07:25:27.370Z,23.30
2018-09-18T07:27:58.194Z,24.30
2018-09-18T07:30:29.717Z,22.80
2018-09-18T07:33:00.541Z,47.43
2018-09-18T07:35:31.348Z,29.90
2018-09-18T07:38:02.122Z,38.80
2018-09-18T07:40:32.870Z,49.37
2018-09-18T07:43:04.576Z,32.50
2018-09-18T07:45:36.236Z,30.03
2018-09-18T07:48:07.051Z,17.80
2018-09-18T07:50:38.037Z,17.40
2018-09-18T07:53:09.799Z,15.70
2018-09-18T07:55:40.686Z,18.07
2018-09-18T07:58:12.606Z,18.80
2018-09-18T08:00:43.378Z,15.67
2018-09-18T08:03:14.563Z,14.70
2018-09-18T08:05:45.538Z,19.03
2018-09-18T08:08:16.601Z,14.90
2018-09-18T08:10:48.028Z,14.73
2018-09-18T08:13:23.608Z,13.77
2018-09-18T08:15:55.165Z,15.67
2018-09-18T08:18:25.977Z,14.60
2018-09-18T08:20:57.710Z,13.87
2018-09-18T08:23:28.846Z,14.37
2018-09-18T08:25:59.816Z,14.90
2018-09-18T08:28:31.190Z,13.93
2018-09-18T08:31:01.941Z,13.97
2018-09-18T08:33:32.809Z,16.10
2018-09-18T08:36:03.642Z,14.77
2018-09-18T08:38:34.690Z,14.67
2018-09-18T08:41:05.507Z,15.23
2018-09-18T08:43:36.343Z,15.83
2018-09-18T08:46:07.375Z,13.97
2018-09-18T08:48:42.252Z,13.97
2018-09-18T08:51:13.138Z,13.00
2018-09-18T08:53:44.150Z,13.30
2018-09-18T08:56:15.017Z,13.73
2018-09-18T08:58:45.865Z,13.30
2018-09-18T09:01:17.193Z,12.40
2018-09-18T09:03:48.444Z,12.37
2018-09-18T09:06:19.769Z,15.80
2018-09-18T09:08:56.299Z,15.57
2018-09-18T09:11:27.203Z,13.27
2018-09-18T09:13:58.008Z,15.93
2018-09-18T09:16:29.100Z,12.57
2018-09-18T09:19:01.596Z,10.27
2018-09-18T09:21:35.682Z,11.07
2018-09-18T09:24:06.916Z,9.80
2018-09-18T09:26:37.697Z,11.63
2018-09-18T09:29:09.967Z,10.30
2018-09-18T09:31:40.753Z,14.53
2018-09-18T09:34:23.914Z,10.57
2018-09-18T09:36:55.170Z,10.50
2018-09-18T09:39:26.593Z,11.00
2018-09-18T09:41:59.141Z,13.80
2018-09-18T09:44:29.965Z,13.40
2018-09-18T09:47:00.757Z,11.70
2018-09-18T09:49:31.579Z,10.80
2018-09-18T09:52:04.676Z,17.05
2018-09-18T09:54:35.488Z,10.47
2018-09-18T09:57:06.410Z,10.80
2018-09-18T09:59:37.345Z,9.97
2018-09-18T10:02:13.152Z,11.00
2018-09-18T10:04:43.939Z,9.33
2018-09-18T10:07:15.049Z,10.73
2018-09-18T10:09:52.670Z,11.40
2018-09-18T10:12:23.455Z,11.17
2018-09-18T10:14:54.276Z,12.10
2018-09-18T10:17:25.143Z,11.27
2018-09-18T10:19:56.769Z,11.33
2018-09-18T10:22:27.641Z,42.67
2018-09-18T10:24:58.562Z,10.83
2018-09-18T10:27:29.570Z,11.87
2018-09-18T10:30:00.359Z,10.30
2018-09-18T10:32:31.582Z,11.33
2018-09-18T10:35:02.634Z,12.40
2018-09-18T10:37:36.684Z,10.70
2018-09-18T10:40:08.003Z,13.10
2018-09-18T10:42:38.987Z,12.63
2018-09-18T10:45:10.083Z,11.30
2018-09-18T10:47:40.859Z,14.80
2018-09-18T10:50:14.619Z,11.63
2018-09-18T10:52:45.416Z,11.13
2018-09-18T10:55:16.665Z,10.73
2018-09-18T10:57:47.958Z,12.07
2018-09-18T11:00:19.023Z,10.80
2018-09-18T11:02:49.790Z,10.80
2018-09-18T11:05:21.276Z,14.17
2018-09-18T11:07:52.129Z,10.17
2018-09-18T11:10:23.531Z,11.80
2018-09-18T11:12:59.483Z,10.73
2018-09-18T11:15:35.884Z,11.43
2018-09-18T11:18:11.906Z,9.67
2018-09-18T11:20:48.183Z,11.70
2018-09-18T11:23:24.945Z,9.20
2018-09-18T11:26:00.752Z,10.77
2018-09-18T11:28:36.525Z,10.07
2018-09-18T11:31:12.362Z,10.10
2018-09-18T11:33:48.263Z,10.07
2018-09-18T11:36:24.477Z,10.70
2018-09-18T11:39:01.241Z,11.63
2018-09-18T11:41:37.106Z,10.93
2018-09-18T11:44:07.391Z,10.60
2018-09-18T11:46:37.712Z,10.03
2018-09-18T11:49:08.786Z,10.40
2018-09-18T11:51:39.570Z,10.20
2018-09-18T11:54:10.491Z,10.50
2018-09-18T11:56:41.321Z,10.83
2018-09-18T11:59:12.177Z,10.60
2018-09-18T12:01:42.978Z,10.73
2018-09-18T12:04:14.797Z,10.50
2018-09-18T12:06:45.545Z,12.00
2018-09-18T12:09:16.529Z,10.53
2018-09-18T12:11:47.670Z,11.00
2018-09-18T12:14:18.630Z,10.60
2018-09-18T12:16:49.426Z,10.93
2018-09-18T12:19:20.437Z,11.57
2018-09-18T12:21:51.628Z,13.80
2018-09-18T12:24:22.497Z,11.97
2018-09-18T12:26:53.351Z,10.63
2018-09-18T12:29:24.208Z,11.70
2018-09-18T12:31:54.993Z,10.07
2018-09-18T12:34:25.794Z,11.17
2018-09-18T12:36:57.595Z,10.70
2018-09-18T12:39:29.670Z,9.37
2018-09-18T12:42:00.571Z,10.77
2018-09-18T12:44:31.537Z,10.87
2018-09-18T12:47:02.328Z,10.37
2018-09-18T12:49:33.453Z,10.67
2018-09-18T12:52:04.478Z,10.23
2018-09-18T12:54:35.300Z,17.73
2018-09-18T12:57:06.245Z,11.23
2018-09-18T12:59:37.186Z,11.90
2018-09-18T13:02:08.107Z,12.00
2018-09-18T13:04:39.116Z,9.50
2018-09-18T13:07:10.569Z,11.03
2018-09-18T13:09:41.436Z,10.30
2018-09-18T13:12:12.193Z,9.97
2018-09-18T13:14:44.012Z,9.77
2018-09-18T13:17:18.012Z,9.93
2018-09-18T13:19:49.014Z,10.33
2018-09-18T13:22:19.825Z,12.00
2018-09-18T13:24:53.341Z,10.17
2018-09-18T13:27:24.415Z,9.80
2018-09-18T13:29:56.345Z,9.93
2018-09-18T13:32:27.189Z,10.37
2018-09-18T13:34:58.137Z,10.27
2018-09-18T13:37:29.357Z,10.50
2018-09-18T13:40:00.422Z,10.03
2018-09-18T13:42:34.309Z,10.10
2018-09-18T13:45:05.283Z,9.60
2018-09-18T13:47:39.553Z,9.37
2018-09-18T13:50:10.346Z,9.20
2018-09-18T13:52:41.650Z,9.13
2018-09-18T13:55:12.429Z,9.90
2018-09-18T13:57:43.966Z,9.53
2018-09-18T14:00:15.753Z,11.63
2018-09-18T14:02:46.502Z,10.83
2018-09-18T14:05:20.389Z,8.93
2018-09-18T14:07:51.168Z,10.13
2018-09-18T14:10:22.133Z,9.03
2018-09-18T14:12:53.365Z,18.37
2018-09-18T14:15:24.289Z,11.57
2018-09-18T14:17:55.130Z,10.83
2018-09-18T14:20:26.028Z,13.13
2018-09-18T14:22:56.969Z,10.23
2018-09-18T14:25:27.830Z,9.37
2018-09-18T14:27:58.787Z,10.90
2018-09-18T14:30:32.800Z,8.93
2018-09-18T14:33:03.692Z,9.20
2018-09-18T14:35:34.529Z,8.77
2018-09-18T14:38:05.265Z,8.40
2018-09-18T14:40:36.130Z,8.40
2018-09-18T14:43:07.941Z,11.73
2018-09-18T14:45:39.511Z,10.27
2018-09-18T14:48:10.559Z,9.50
2018-09-18T14:50:41.402Z,9.43
2018-09-18T14:53:12.241Z,9.53
2018-09-18T14:55:43.656Z,8.30
2018-09-18T14:58:15.358Z,10.23
2018-09-18T15:00:46.214Z,10.30
2018-09-18T15:03:17.000Z,9.67
2018-09-18T15:05:47.837Z,9.40
2018-09-18T15:08:19.466Z,9.33
2018-09-18T15:10:50.341Z,10.53
2018-09-18T15:13:21.864Z,11.13
2018-09-18T15:15:52.714Z,11.03
2018-09-18T15:18:23.663Z,10.30
2018-09-18T15:20:55.498Z,9.37
2018-09-18T15:23:26.266Z,13.13
2018-09-18T15:25:57.061Z,10.23
2018-09-18T15:28:28.301Z,10.03
2018-09-18T15:30:59.127Z,9.40
2018-09-18T15:33:29.956Z,9.40
2018-09-18T15:36:00.953Z,15.47
2018-09-18T15:38:32.111Z,11.40
2018-09-18T15:41:02.945Z,10.90
2018-09-18T15:43:34.391Z,10.20
2018-09-18T15:46:06.928Z,8.50
2018-09-18T15:48:38.913Z,10.90
2018-09-18T15:51:10.093Z,9.90
2018-09-18T15:53:45.644Z,10.17
2018-09-18T15:56:17.086Z,8.70
2018-09-18T15:58:48.922Z,10.83
2018-09-18T16:01:19.940Z,9.13
2018-09-18T16:03:51.007Z,9.50
2018-09-18T16:06:22.017Z,10.07
2018-09-18T16:08:52.869Z,9.97
2018-09-18T16:11:24.022Z,10.57
2018-09-18T16:13:54.813Z,12.07
2018-09-18T16:16:26.490Z,62.57
2018-09-18T16:18:57.441Z,15.57
2018-09-18T16:21:28.248Z,17.43
2018-09-18T16:23:59.233Z,13.80
2018-09-18T16:26:30.126Z,12.60
2018-09-18T16:29:00.960Z,14.20
2018-09-18T16:31:31.954Z,11.80
2018-09-18T16:34:03.343Z,11.00
2018-09-18T16:36:34.158Z,10.87
2018-09-18T16:39:05.936Z,18.40
2018-09-18T16:41:36.852Z,16.23
2018-09-18T16:44:07.608Z,17.00
2018-09-18T16:46:39.527Z,22.73
2018-09-18T16:49:11.650Z,15.67
2018-09-18T16:51:42.509Z,18.67
2018-09-18T16:54:13.312Z,29.23
2018-09-18T16:56:48.883Z,14.83
2018-09-18T16:59:19.688Z,60.73
2018-09-18T17:01:50.515Z,30.30
2018-09-18T17:04:21.371Z,27.33
2018-09-18T17:06:52.365Z,29.20
2018-09-18T17:09:23.134Z,31.83
2018-09-18T17:11:53.969Z,41.30
2018-09-18T17:14:25.047Z,39.77
2018-09-18T17:16:56.492Z,31.93
2018-09-18T17:19:28.292Z,25.73
2018-09-18T17:21:59.313Z,22.73
2018-09-18T17:24:30.401Z,28.33
2018-09-18T17:27:02.547Z,32.90
2018-09-18T17:29:33.405Z,28.37
2018-09-18T17:32:04.249Z,32.17
2018-09-18T17:34:35.017Z,30.53
2018-09-18T17:37:05.875Z,25.63
2018-09-18T17:39:36.700Z,25.97
2018-09-18T17:42:07.618Z,21.07
2018-09-18T17:44:38.385Z,19.37
2018-09-18T17:47:09.944Z,68.80
2018-09-18T17:49:40.934Z,29.80
2018-09-18T17:52:11.872Z,46.23
2018-09-18T17:54:42.640Z,58.57
2018-09-18T17:57:13.591Z,23.23
2018-09-18T17:59:44.398Z,22.37
2018-09-18T18:02:16.422Z,22.93
2018-09-18T18:04:48.229Z,18.53
2018-09-18T18:07:19.281Z,28.33
2018-09-18T18:09:50.220Z,21.73
2018-09-18T18:12:21.045Z,43.97
2018-09-18T18:14:55.163Z,45.70
2018-09-18T18:20:34.564Z,30.37
2018-09-18T18:23:06.169Z,27.97
2018-09-18T18:25:36.968Z,32.77
2018-09-18T18:28:07.851Z,24.27
2018-09-18T18:30:38.633Z,27.37
2018-09-18T18:33:10.134Z,46.63
2018-09-18T18:35:41.131Z,43.33
2018-09-18T18:38:12.283Z,167.07
2018-09-18T18:40:43.531Z,35.33
2018-09-18T18:43:14.408Z,28.80
2018-09-18T18:45:46.479Z,26.80
2018-09-18T18:48:17.903Z,19.30
2018-09-18T18:50:48.782Z,26.13
2018-09-18T18:53:19.607Z,18.40
2018-09-18T18:55:50.434Z,22.23
2018-09-18T18:58:21.245Z,20.63
2018-09-18T19:00:52.082Z,29.33
2018-09-18T19:03:23.844Z,23.50
2018-09-18T19:05:54.648Z,32.30
2018-09-18T19:08:26.629Z,16.13
2018-09-18T19:10:57.655Z,14.87
2018-09-18T19:13:28.555Z,18.70
2018-09-18T19:16:00.017Z,15.60
2018-09-18T19:18:31.010Z,16.97
2018-09-18T19:21:03.770Z,14.93
2018-09-18T19:23:35.667Z,15.43
2018-09-18T19:26:06.765Z,15.83
2018-09-18T19:28:38.347Z,18.17
2018-09-18T19:31:09.796Z,22.13
2018-09-18T19:33:41.809Z,15.60
2018-09-18T19:36:12.655Z,18.57
2018-09-18T19:38:45.136Z,17.60
2018-09-18T19:41:20.866Z,17.03
2018-09-18T19:43:52.493Z,32.80
2018-09-18T19:46:23.423Z,36.27
2018-09-18T19:48:54.258Z,33.13
2018-09-18T19:51:25.391Z,31.47
2018-09-18T19:53:56.643Z,27.07
2018-09-18T19:56:27.764Z,32.20
2018-09-18T19:59:04.400Z,25.27
2018-09-18T20:01:40.196Z,26.17
2018-09-18T20:04:17.037Z,25.47
2018-09-18T20:06:52.736Z,18.93
2018-09-18T20:09:29.549Z,18.57
2018-09-18T20:12:06.505Z,17.27
2018-09-18T20:14:42.723Z,19.50
2018-09-18T20:17:18.692Z,18.93
2018-09-18T20:19:55.500Z,15.50
2018-09-18T20:22:31.333Z,16.43
2018-09-18T20:25:07.233Z,18.60
2018-09-18T20:27:43.152Z,15.93
2018-09-18T20:30:19.088Z,17.93
2018-09-18T20:32:56.697Z,14.43
2018-09-18T20:35:32.636Z,15.83
2018-09-18T20:38:08.602Z,14.13
2018-09-18T20:40:44.491Z,14.67
2018-09-18T20:43:20.349Z,18.30
2018-09-18T20:45:56.301Z,21.13
2018-09-18T20:48:32.045Z,19.20
2018-09-18T20:51:11.287Z,22.20
2018-09-18T20:53:46.955Z,21.20
2018-09-18T20:56:23.206Z,32.00
2018-09-18T20:58:59.049Z,28.30
2018-09-18T21:01:34.833Z,31.03
2018-09-18T21:04:10.702Z,25.73
2018-09-18T21:06:46.510Z,29.23
2018-09-18T21:09:22.321Z,29.33
2018-09-18T21:11:58.861Z,34.17
2018-09-18T21:14:34.760Z,30.47
2018-09-18T21:17:10.610Z,26.20
2018-09-18T21:19:46.448Z,23.97
2018-09-18T21:22:22.358Z,45.33
2018-09-18T21:25:16.065Z,18.77
2018-09-18T21:27:51.840Z,20.13
2018-09-18T21:30:28.249Z,18.20
2018-09-18T21:33:04.054Z,16.23
2018-09-18T21:35:39.792Z,17.33
2018-09-18T21:38:15.506Z,15.77
2018-09-18T21:40:51.666Z,17.03
2018-09-18T21:43:28.292Z,15.70
2018-09-18T21:46:04.708Z,18.43
2018-09-18T21:48:41.256Z,14.30
2018-09-18T21:51:17.950Z,15.90
2018-09-18T21:53:53.728Z,17.73
2018-09-18T21:56:29.615Z,15.97
2018-09-18T21:59:05.801Z,19.50
2018-09-18T22:01:41.632Z,21.77
2018-09-18T22:04:17.571Z,25.03
2018-09-18T22:06:53.333Z,31.20
2018-09-18T22:09:29.623Z,32.07
2018-09-18T22:12:05.277Z,31.93
2018-09-18T22:14:41.061Z,32.27
2018-09-18T22:17:17.302Z,29.63
2018-09-18T22:19:53.718Z,31.33
2018-09-18T22:22:29.566Z,27.40
2018-09-18T22:25:06.598Z,29.83
2018-09-18T22:27:42.260Z,21.77
2018-09-18T22:30:18.221Z,28.17
2018-09-18T22:32:54.957Z,25.70
2018-09-18T22:35:30.845Z,45.93
2018-09-18T22:38:07.658Z,46.00
2018-09-18T22:40:43.823Z,50.03
2018-09-18T22:43:19.630Z,41.27
2018-09-18T22:45:55.506Z,28.53
2018-09-18T22:48:31.481Z,30.23
2018-09-18T22:51:07.397Z,32.17
2018-09-18T22:53:44.372Z,25.83
2018-09-18T22:56:20.521Z,30.00
2018-09-18T22:58:56.565Z,26.90
2018-09-18T23:01:32.463Z,22.27
2018-09-18T23:04:08.226Z,20.60
2018-09-18T23:06:43.999Z,19.83
2018-09-18T23:09:19.856Z,18.93
2018-09-18T23:11:56.219Z,19.00
2018-09-18T23:14:32.114Z,18.17
2018-09-18T23:17:08.129Z,15.87
2018-09-18T23:19:43.870Z,21.00
2018-09-18T23:22:19.674Z,28.27
2018-09-18T23:24:55.537Z,26.53
2018-09-18T23:27:31.327Z,24.33
2018-09-18T23:30:07.186Z,25.63
2018-09-18T23:32:42.970Z,34.33
2018-09-18T23:35:18.770Z,28.27
2018-09-18T23:37:56.057Z,22.10
2018-09-18T23:40:31.879Z,24.30
2018-09-18T23:43:07.784Z,21.53
2018-09-18T23:45:43.990Z,19.00
2018-09-18T23:48:20.660Z,17.93
2018-09-18T23:50:57.194Z,18.23
2018-09-18T23:53:32.968Z,16.47
2018-09-18T23:56:08.650Z,21.90
2018-09-18T23:58:44.468Z,28.50
